Rosa Maersk — OVST2 — position and weather

sailwx.info

Track history (hours):
 
Tides and Currents Weather Stations Pressure Air Temp Water Temp Dewpoint Dewpoint Depression Visibility Wind Speed Wind Dir Waves Ship Positions

Rosa Maersk

Last reported at 2014-Oct-20 06:11 UTC. Time now 2014-Oct-20 11:30 UTC.
Position N 37°50' E 024°09'.

Length 172 m; draft 11.1 m.

Type: Tanker. MMSI: 220288000.

Date/timePositionNaut miles runAvg speedWind from/ knotsBaromVisibWave heightAir tempDewpointWater temp
2014-Oct-20 06:11N 37°50' E 024°09'2 0.1
2014-Oct-19 15:31N 37°51' E 024°09'9 2.3
2014-Oct-19 11:30N 37°42' E 024°11'1010.7
2014-Oct-19 10:33N 37°33' E 024°06'3510.4
2014-Oct-19 07:10N 36°60' E 023°50'6 9.9
2014-Oct-19 06:32N 36°54' E 023°47'41011.1
2014-Oct-17 17:33N 36°23' E 015°17'1212.4
2014-Oct-17 16:33N 36°24' E 015°01'1313.2
2014-Oct-17 15:33N 36°26' E 014°45'1312.9
2014-Oct-17 14:33N 36°30' E 014°30'1313.1
2014-Oct-17 13:33N 36°35' E 014°15'1313.1
2014-Oct-17 12:32N 36°40' E 013°59'1313.0
2014-Oct-17 11:33N 36°44' E 013°45'1312.7
2014-Oct-17 10:33N 36°49' E 013°30'1212.5
2014-Oct-17 09:33N 36°53' E 013°15'1212.3
2014-Oct-17 08:33N 36°58' E 013°01'1312.5
2014-Oct-17 07:33N 37°02' E 012°46'  
2014-Oct-14 09:18N 36°00' W 005°12'1215.6
2014-Oct-14 08:33N 35°58' W 005°26'  
Track history (hours):
 
Tides and Currents Weather Stations Pressure Air Temp Water Temp Dewpoint Dewpoint Depression Visibility Wind Speed Wind Dir Waves Ship Positions

Rosa Maersk

Last reported at 2014-Oct-20 06:11 UTC. Time now 2014-Oct-20 11:30 UTC.
Position N 37°50' E 024°09'.

Length 172 m; draft 11.1 m.

Type: Tanker. MMSI: 220288000.

Date/timePositionNaut miles runAvg speedWind from/ knotsBaromVisibWave heightAir tempDewpointWater temp
2014-Oct-20 06:11N 37°50' E 024°09'2 0.1
2014-Oct-19 15:31N 37°51' E 024°09'9 2.3
2014-Oct-19 11:30N 37°42' E 024°11'1010.7
2014-Oct-19 10:33N 37°33' E 024°06'3510.4
2014-Oct-19 07:10N 36°60' E 023°50'6 9.9
2014-Oct-19 06:32N 36°54' E 023°47'41011.1
2014-Oct-17 17:33N 36°23' E 015°17'1212.4
2014-Oct-17 16:33N 36°24' E 015°01'1313.2
2014-Oct-17 15:33N 36°26' E 014°45'1312.9
2014-Oct-17 14:33N 36°30' E 014°30'1313.1
2014-Oct-17 13:33N 36°35' E 014°15'1313.1
2014-Oct-17 12:32N 36°40' E 013°59'1313.0
2014-Oct-17 11:33N 36°44' E 013°45'1312.7
2014-Oct-17 10:33N 36°49' E 013°30'1212.5
2014-Oct-17 09:33N 36°53' E 013°15'1212.3
2014-Oct-17 08:33N 36°58' E 013°01'1312.5
2014-Oct-17 07:33N 37°02' E 012°46'  
2014-Oct-14 09:18N 36°00' W 005°12'1215.6
2014-Oct-14 08:33N 35°58' W 005°26'  

Dump ship's entire track history